Time;durP1;ratioP1;P1;durP2;ratioP2;P2;SDS_P1;SDS_P2;PMS_P1;PMS_P2;Temp;Humidity;BMP_temperature;BMP_pressure;BME280_temperature;BME280_humidity;BME280_pressure;Samples;Min_cycle;Max_cycle;Signal;HPM_P1;HPM_P2
2022/01/18 00:00:51;;;;;;;22.45;11.07;;;4.00;99.90;;;;;;5094127;28;20024;-68
2022/01/18 00:03:17;;;;;;;19.65;12.05;;;4.00;99.90;;;;;;5094712;28;20031;-68
2022/01/18 00:05:45;;;;;;;21.90;12.77;;;4.00;99.90;;;;;;5094370;28;20047;-68
2022/01/18 00:08:11;;;;;;;17.98;11.68;;;4.00;99.90;;;;;;5093955;28;20035;-69
2022/01/18 00:10:37;;;;;;;22.55;13.35;;;4.00;99.90;;;;;;5094456;28;20032;-69
2022/01/18 00:21:15;;;;;;;21.38;12.27;;;4.00;99.90;;;;;;5094267;28;20457;-68
2022/01/18 00:23:41;;;;;;;19.77;12.90;;;3.90;99.90;;;;;;5094156;28;20046;-68
2022/01/18 00:26:09;;;;;;;18.10;11.63;;;3.90;99.90;;;;;;5093326;28;20469;-69
2022/01/18 00:28:37;;;;;;;19.45;12.00;;;3.90;99.90;;;;;;5094140;28;20050;-68
2022/01/18 00:36:04;;;;;;;20.15;11.50;;;3.90;99.90;;;;;;5089879;28;20055;-69
2022/01/18 00:38:43;;;;;;;16.40;11.20;;;3.80;99.90;;;;;;5092560;28;20107;-69
2022/01/18 00:41:09;;;;;;;19.13;11.60;;;3.80;99.90;;;;;;5093109;28;20219;-69
2022/01/18 00:43:35;;;;;;;26.25;14.52;;;3.80;99.90;;;;;;5093701;28;20035;-68
2022/01/18 00:46:01;;;;;;;25.80;15.57;;;3.90;99.90;;;;;;5092852;28;20036;-68
2022/01/18 00:48:26;;;;;;;23.55;13.55;;;3.90;99.90;;;;;;5093826;28;20055;-68
2022/01/18 00:50:53;;;;;;;22.92;13.38;;;3.90;99.90;;;;;;5074972;28;20039;-68
2022/01/18 00:53:20;;;;;;;22.50;13.70;;;3.90;99.90;;;;;;5093652;28;20020;-68
2022/01/18 00:58:31;;;;;;;22.90;14.88;;;3.80;99.90;;;;;;5093356;28;20035;-69
2022/01/18 01:00:57;;;;;;;24.23;14.95;;;3.80;99.90;;;;;;5093449;28;20055;-68
2022/01/18 01:03:22;;;;;;;24.02;14.52;;;3.80;99.90;;;;;;5093715;28;20074;-68
2022/01/18 01:05:48;;;;;;;25.27;14.32;;;3.80;99.90;;;;;;5093721;28;20028;-68
2022/01/18 01:08:14;;;;;;;24.67;14.63;;;3.80;99.90;;;;;;5092800;28;20024;-68
2022/01/18 01:10:40;;;;;;;28.00;14.50;;;3.80;99.90;;;;;;5093392;28;20388;-68
2022/01/18 01:13:06;;;;;;;22.02;13.73;;;3.80;99.90;;;;;;5092860;28;20028;-68
2022/01/18 01:15:37;;;;;;;23.15;14.20;;;3.80;99.90;;;;;;5092931;28;20024;-68
2022/01/18 01:18:36;;;;;;;23.90;14.60;;;3.80;99.90;;;;;;5092630;28;20036;-68
2022/01/18 01:34:40;;;;;;;26.30;15.60;;;4.10;99.90;;;;;;5093011;28;20503;-68
2022/01/18 01:42:42;;;;;;;27.67;16.27;;;4.00;99.90;;;;;;5091991;28;20031;-68
2022/01/18 01:45:02;;;;;;;27.08;14.93;;;3.90;99.90;;;;;;5091830;28;20038;-68
2022/01/18 01:47:36;;;;;;;28.75;16.25;;;3.90;99.90;;;;;;5092318;28;20024;-68
2022/01/18 01:50:07;;;;;;;26.63;15.75;;;3.90;99.90;;;;;;5092418;28;20048;-68
2022/01/18 01:52:33;;;;;;;28.38;16.60;;;3.80;99.90;;;;;;5092517;28;20032;-68
2022/01/18 01:54:59;;;;;;;29.80;17.15;;;3.80;99.90;;;;;;5092077;28;20035;-68
2022/01/18 01:57:24;;;;;;;33.45;16.35;;;3.80;99.90;;;;;;5092389;28;20508;-68
2022/01/18 01:59:50;;;;;;;29.45;16.65;;;3.70;99.90;;;;;;5092404;28;20026;-68
2022/01/18 02:02:16;;;;;;;28.40;16.27;;;3.70;99.90;;;;;;5091856;28;20054;-68
2022/01/18 02:04:42;;;;;;;32.42;17.73;;;3.70;99.90;;;;;;5092630;28;20032;-68
2022/01/18 02:07:08;;;;;;;27.88;16.95;;;3.60;99.90;;;;;;5091900;28;20024;-68
2022/01/18 02:09:34;;;;;;;31.85;16.92;;;3.70;99.90;;;;;;5092369;28;20028;-68
2022/01/18 02:12:00;;;;;;;31.33;16.85;;;3.70;99.90;;;;;;5091066;28;20047;-68
2022/01/18 02:14:30;;;;;;;30.98;18.20;;;3.60;99.90;;;;;;5074600;28;20116;-68
2022/01/18 02:22:38;;;;;;;32.25;17.88;;;3.70;99.90;;;;;;5058009;28;20127;-68
2022/01/18 02:25:04;;;;;;;30.45;16.90;;;3.70;99.90;;;;;;5087021;28;20099;-68
2022/01/18 02:27:29;;;;;;;29.35;17.58;;;3.60;99.90;;;;;;5092296;28;20035;-68
2022/01/18 02:29:55;;;;;;;27.05;16.85;;;3.60;99.90;;;;;;5091654;28;20446;-68
2022/01/18 02:32:20;;;;;;;38.30;18.25;;;3.60;99.90;;;;;;5091798;28;20024;-68
2022/01/18 02:34:46;;;;;;;34.47;19.05;;;3.60;99.90;;;;;;5092179;28;20054;-68
2022/01/18 02:37:14;;;;;;;31.23;17.30;;;3.60;99.90;;;;;;5091477;28;20076;-68
2022/01/18 02:39:40;;;;;;;32.40;18.35;;;3.60;99.90;;;;;;5091864;28;20436;-68
2022/01/18 02:42:07;;;;;;;35.13;19.52;;;3.60;99.90;;;;;;5091519;28;20032;-68
2022/01/18 02:44:35;;;;;;;32.13;18.50;;;3.50;99.90;;;;;;5092235;28;20032;-68
2022/01/18 02:47:01;;;;;;;36.55;19.15;;;3.50;99.90;;;;;;5091085;28;20520;-68
2022/01/18 02:49:28;;;;;;;38.40;20.98;;;3.50;99.90;;;;;;5091808;28;20366;-68
2022/01/18 02:51:57;;;;;;;36.80;19.88;;;3.50;99.90;;;;;;5094631;28;20024;-68
2022/01/18 02:54:23;;;;;;;38.53;21.15;;;3.50;99.90;;;;;;5077867;28;20035;-68
2022/01/18 02:56:57;;;;;;;33.85;19.33;;;3.60;99.90;;;;;;5095986;28;20036;-68
2022/01/18 02:59:52;;;;;;;37.78;20.60;;;3.60;99.90;;;;;;5096155;28;20028;-68
2022/01/18 03:05:06;;;;;;;38.50;19.98;;;3.50;99.90;;;;;;5095370;28;20035;-68
2022/01/18 03:07:32;;;;;;;38.40;20.27;;;3.50;99.90;;;;;;5095820;28;20472;-68
2022/01/18 03:09:58;;;;;;;36.15;20.00;;;3.50;99.90;;;;;;5095126;28;20036;-68
2022/01/18 03:12:24;;;;;;;34.38;20.10;;;3.50;99.90;;;;;;5095679;28;20024;-68
2022/01/18 03:14:50;;;;;;;35.88;20.50;;;3.50;99.90;;;;;;5095435;28;20029;-68
2022/01/18 03:17:16;;;;;;;36.67;20.05;;;3.50;99.90;;;;;;5094961;28;20032;-68
2022/01/18 03:19:41;;;;;;;38.13;20.85;;;3.50;99.90;;;;;;5090623;28;20028;-67
2022/01/18 03:22:07;;;;;;;35.45;20.20;;;3.40;99.90;;;;;;5095057;28;20028;-67
2022/01/18 03:29:52;;;;;;;42.53;21.42;;;3.50;99.90;;;;;;5095208;28;20065;-67
2022/01/18 03:32:18;;;;;;;38.20;21.00;;;3.50;99.90;;;;;;5094668;28;20032;-67
2022/01/18 03:34:44;;;;;;;35.30;20.38;;;3.50;99.90;;;;;;5095187;28;20032;-67
2022/01/18 03:37:09;;;;;;;36.45;20.38;;;3.50;99.90;;;;;;5094637;28;20058;-67
2022/01/18 03:39:35;;;;;;;33.90;19.52;;;3.50;99.90;;;;;;5095109;28;20469;-68
2022/01/18 03:44:47;;;;;;;36.85;19.95;;;3.50;99.90;;;;;;5095012;28;20024;-68
2022/01/18 03:47:14;;;;;;;40.47;20.65;;;3.50;99.90;;;;;;5094484;28;20035;-67
2022/01/18 03:49:40;;;;;;;36.40;20.50;;;3.50;99.90;;;;;;5094589;28;20572;-68
2022/01/18 03:52:05;;;;;;;35.60;20.77;;;3.50;99.90;;;;;;5094414;28;20063;-66
2022/01/18 03:54:31;;;;;;;38.95;21.25;;;3.50;99.90;;;;;;5094796;28;20063;-67
2022/01/18 03:56:57;;;;;;;37.80;21.23;;;3.50;99.90;;;;;;5094220;28;20032;-67
2022/01/18 03:59:22;;;;;;;38.50;20.23;;;3.50;99.90;;;;;;5094717;28;20028;-68
2022/01/18 04:01:48;;;;;;;37.25;20.50;;;3.50;99.90;;;;;;5094087;28;20024;-67
2022/01/18 04:04:16;;;;;;;39.15;21.83;;;3.60;99.90;;;;;;5093255;28;20052;-67
2022/01/18 04:06:42;;;;;;;38.85;20.40;;;3.60;99.90;;;;;;5094780;28;20107;-68
2022/01/18 04:09:08;;;;;;;36.40;21.23;;;3.60;99.90;;;;;;5093935;28;20145;-67
2022/01/18 04:11:33;;;;;;;35.08;19.40;;;3.60;99.90;;;;;;5094506;28;20028;-68
2022/01/18 04:13:59;;;;;;;35.75;20.70;;;3.60;99.90;;;;;;5088830;28;20128;-67
2022/01/18 04:16:25;;;;;;;34.42;20.60;;;3.60;99.90;;;;;;5094522;28;20063;-68
2022/01/18 04:18:57;;;;;;;40.53;20.27;;;3.60;99.90;;;;;;5094536;28;20583;-68
2022/01/18 04:27:11;;;;;;;45.08;22.33;;;3.60;99.90;;;;;;5031101;28;20041;-68
2022/01/18 04:29:37;;;;;;;41.47;22.25;;;3.50;99.90;;;;;;5031619;28;20033;-67
2022/01/18 04:32:03;;;;;;;37.78;21.10;;;3.60;99.90;;;;;;5059647;28;20039;-68
2022/01/18 04:34:28;;;;;;;43.08;22.42;;;3.60;99.90;;;;;;5094187;28;20044;-68
2022/01/18 04:36:54;;;;;;;40.55;21.13;;;3.60;99.90;;;;;;5094188;28;20036;-68
2022/01/18 04:39:20;;;;;;;39.60;21.70;;;3.60;99.90;;;;;;5093504;28;20165;-68
2022/01/18 04:41:46;;;;;;;41.38;21.73;;;3.70;99.90;;;;;;5094071;28;20061;-68
2022/01/18 04:48:25;;;;;;;35.50;21.27;;;3.60;99.90;;;;;;5093137;28;20024;-67
2022/01/18 04:49:44;;;;;;;42.30;21.58;;;3.60;99.90;;;;;;5093195;28;20056;-67
2022/01/18 04:52:12;;;;;;;40.30;21.42;;;3.60;99.90;;;;;;5093500;28;20024;-67
2022/01/18 04:54:41;;;;;;;38.15;22.02;;;3.60;99.90;;;;;;5093581;28;20130;-68
2022/01/18 04:59:37;;;;;;;42.72;23.15;;;3.60;99.90;;;;;;5093438;28;20043;-68
2022/01/18 05:02:03;;;;;;;38.28;22.10;;;3.60;99.90;;;;;;5092892;28;20064;-67
2022/01/18 05:04:29;;;;;;;43.65;24.00;;;3.60;99.90;;;;;;5093356;28;20102;-68
2022/01/18 05:07:00;;;;;;;40.47;22.65;;;3.60;99.90;;;;;;5090115;28;20124;-67
2022/01/18 05:09:25;;;;;;;45.38;23.42;;;3.60;99.90;;;;;;5092155;28;20107;-68
2022/01/18 05:12:00;;;;;;;45.92;23.23;;;3.60;99.90;;;;;;5093593;28;20051;-68
2022/01/18 05:14:32;;;;;;;43.78;22.65;;;3.60;99.90;;;;;;5093115;28;20039;-68
2022/01/18 05:17:20;;;;;;;40.67;22.20;;;3.70;99.90;;;;;;5075228;28;20040;-68
2022/01/18 05:20:01;;;;;;;40.90;22.80;;;3.70;99.90;;;;;;5093112;28;20035;-68
2022/01/18 05:25:11;;;;;;;39.10;22.48;;;3.80;99.90;;;;;;5092433;28;20043;-68
2022/01/18 05:27:36;;;;;;;44.45;22.83;;;3.80;99.90;;;;;;5093411;28;20385;-68
2022/01/18 05:30:02;;;;;;;43.85;22.63;;;3.80;99.90;;;;;;5092464;28;20032;-67
2022/01/18 05:32:28;;;;;;;43.70;23.20;;;3.90;99.90;;;;;;5093510;28;20039;-68
2022/01/18 05:34:53;;;;;;;41.80;23.85;;;3.90;99.90;;;;;;5092963;28;20036;-68
2022/01/18 05:37:19;;;;;;;44.20;23.30;;;3.90;99.90;;;;;;5092201;28;20064;-68
2022/01/18 05:39:45;;;;;;;47.42;24.15;;;3.80;99.90;;;;;;5092751;28;20074;-68
2022/01/18 05:42:10;;;;;;;44.30;22.35;;;3.80;99.90;;;;;;5092005;28;20028;-68
2022/01/18 05:44:36;;;;;;;42.63;24.17;;;3.80;99.90;;;;;;5074928;28;20028;-69
2022/01/18 05:47:02;;;;;;;38.10;22.52;;;3.80;99.90;;;;;;5092147;28;20042;-68
2022/01/18 05:49:27;;;;;;;52.50;25.65;;;3.80;99.90;;;;;;5092936;28;20120;-68
2022/01/18 05:51:53;;;;;;;60.78;28.63;;;3.80;99.90;;;;;;5092585;28;20550;-69
2022/01/18 05:54:19;;;;;;;63.03;30.15;;;3.80;99.90;;;;;;5092551;28;20711;-68
2022/01/18 05:56:44;;;;;;;49.10;25.00;;;3.70;99.90;;;;;;5092540;28;20518;-68
2022/01/18 05:59:12;;;;;;;49.78;26.08;;;3.80;99.90;;;;;;5092085;28;20453;-68
2022/01/18 06:01:47;;;;;;;47.25;24.27;;;3.80;99.90;;;;;;5071102;28;20036;-68
2022/01/18 06:06:51;;;;;;;48.38;23.98;;;3.70;99.90;;;;;;5091879;28;20032;-68
2022/01/18 06:07:01;;;;;;;51.97;23.98;;;3.60;99.90;;;;;;5090659;28;20028;-68
2022/01/18 06:09:27;;;;;;;48.88;26.08;;;3.60;99.90;;;;;;5091979;28;20583;-68
2022/01/18 06:11:52;;;;;;;51.80;26.35;;;3.50;99.90;;;;;;5092175;28;20396;-68
2022/01/18 06:14:18;;;;;;;51.65;25.23;;;3.60;99.90;;;;;;5091728;28;20031;-68
2022/01/18 06:16:44;;;;;;;51.22;24.55;;;3.60;99.90;;;;;;5092209;28;20064;-68
2022/01/18 06:19:10;;;;;;;46.80;25.13;;;3.60;99.90;;;;;;5091578;28;20024;-68
2022/01/18 06:21:36;;;;;;;49.78;25.85;;;3.60;99.90;;;;;;5091787;28;20431;-68
2022/01/18 06:24:02;;;;;;;43.35;23.45;;;3.60;99.90;;;;;;5091144;28;20028;-68
2022/01/18 06:26:28;;;;;;;52.55;25.98;;;3.60;99.90;;;;;;5094216;28;20078;-68
2022/01/18 06:28:55;;;;;;;46.20;25.45;;;3.60;99.90;;;;;;5096501;28;20024;-68
2022/01/18 06:31:21;;;;;;;47.75;24.70;;;3.60;99.90;;;;;;5095867;28;20222;-68
2022/01/18 06:33:46;;;;;;;52.15;25.55;;;3.60;99.90;;;;;;5096270;28;20024;-68
2022/01/18 06:36:12;;;;;;;51.47;26.58;;;3.60;99.90;;;;;;5094534;28;20501;-68
2022/01/18 06:38:38;;;;;;;46.35;24.42;;;3.60;99.90;;;;;;5095959;28;20032;-68
2022/01/18 06:41:04;;;;;;;53.60;25.63;;;3.50;99.90;;;;;;5095260;28;20384;-68
2022/01/18 06:43:29;;;;;;;54.90;28.02;;;3.50;99.90;;;;;;5096221;28;20028;-69
2022/01/18 06:45:55;;;;;;;46.13;25.10;;;3.50;99.90;;;;;;5095970;28;20043;-68
2022/01/18 06:48:21;;;;;;;49.88;25.05;;;3.40;99.90;;;;;;5095330;28;20062;-68
2022/01/18 06:50:46;;;;;;;53.90;26.10;;;3.40;99.90;;;;;;5095832;28;20028;-68
2022/01/18 06:53:12;;;;;;;53.13;26.05;;;3.40;99.90;;;;;;5095354;28;20032;-68
2022/01/18 06:55:38;;;;;;;53.97;26.98;;;3.40;99.90;;;;;;5087507;28;20041;-72
2022/01/18 06:58:03;;;;;;;54.58;26.88;;;3.40;99.90;;;;;;5074488;28;20032;-71
2022/01/18 07:00:29;;;;;;;58.50;26.33;;;3.40;99.90;;;;;;5074185;28;20473;-70
2022/01/18 07:02:54;;;;;;;52.72;26.52;;;3.40;99.90;;;;;;5074850;28;20029;-68
2022/01/18 07:05:20;;;;;;;58.60;27.95;;;3.40;99.90;;;;;;5074206;28;20032;-68
2022/01/18 07:07:47;;;;;;;51.53;27.35;;;3.40;99.90;;;;;;5074618;28;20067;-67
2022/01/18 07:10:13;;;;;;;53.53;26.80;;;3.40;99.90;;;;;;5073273;28;20090;-68
2022/01/18 07:12:39;;;;;;;54.60;27.67;;;3.40;99.90;;;;;;5104103;28;20031;-68
2022/01/18 07:15:06;;;;;;;51.55;26.35;;;3.30;99.90;;;;;;5116554;28;20077;-68
2022/01/18 07:17:33;;;;;;;58.97;27.33;;;3.30;99.90;;;;;;5093005;28;20504;-69
2022/01/18 07:19:59;;;;;;;55.22;26.27;;;3.30;99.90;;;;;;5099001;28;20038;-67
2022/01/18 07:22:24;;;;;;;55.92;26.85;;;3.30;99.90;;;;;;5115388;28;20442;-67
2022/01/18 07:24:55;;;;;;;54.67;27.73;;;3.30;99.90;;;;;;5103494;28;20035;-67
2022/01/18 07:27:21;;;;;;;52.40;25.40;;;3.40;99.90;;;;;;5094142;28;20028;-68
2022/01/18 07:29:47;;;;;;;53.78;26.67;;;3.30;99.90;;;;;;5095080;28;20103;-68
2022/01/18 07:32:13;;;;;;;54.97;27.42;;;3.30;99.90;;;;;;5099890;28;20068;-67
2022/01/18 07:34:46;;;;;;;56.80;27.25;;;3.30;99.90;;;;;;5096842;28;20032;-67
2022/01/18 07:37:12;;;;;;;54.45;25.50;;;3.30;99.90;;;;;;5113056;28;20093;-67
2022/01/18 07:39:37;;;;;;;53.50;26.08;;;3.30;99.90;;;;;;5114789;28;20409;-67
2022/01/18 07:42:03;;;;;;;49.92;26.98;;;3.30;99.90;;;;;;5114372;28;20434;-68
2022/01/18 07:44:30;;;;;;;51.35;26.63;;;3.30;99.90;;;;;;5114598;28;20034;-68
2022/01/18 07:46:56;;;;;;;56.70;28.73;;;3.30;99.90;;;;;;5107906;28;20032;-67
2022/01/18 07:49:21;;;;;;;56.65;25.70;;;3.30;99.90;;;;;;5089235;28;20067;-67
2022/01/18 07:51:47;;;;;;;51.70;25.75;;;3.40;99.90;;;;;;5092281;28;20028;-68
2022/01/18 07:54:13;;;;;;;53.22;26.10;;;3.40;99.90;;;;;;5093125;28;20028;-67
2022/01/18 07:56:41;;;;;;;50.28;26.90;;;3.40;99.90;;;;;;5093955;28;20043;-67
2022/01/18 07:59:09;;;;;;;55.00;26.50;;;3.50;99.90;;;;;;5093604;28;20028;-67
2022/01/18 08:01:35;;;;;;;45.20;24.70;;;3.50;99.90;;;;;;5093642;28;20021;-67
2022/01/18 08:04:00;;;;;;;48.03;25.60;;;3.50;99.90;;;;;;5093577;28;20036;-67
2022/01/18 08:06:26;;;;;;;53.25;27.23;;;3.60;99.90;;;;;;5093343;28;20026;-67
2022/01/18 08:08:52;;;;;;;49.28;25.52;;;3.70;99.90;;;;;;5093912;28;20050;-67
2022/01/18 08:11:17;;;;;;;45.15;25.70;;;3.80;99.90;;;;;;5092438;28;20035;-67
2022/01/18 08:13:47;;;;;;;46.58;25.45;;;3.80;99.90;;;;;;5093787;28;20031;-68
2022/01/18 08:16:44;;;;;;;47.88;25.38;;;3.80;99.90;;;;;;5090221;28;20042;-66
2022/01/18 08:19:08;;;;;;;49.38;24.13;;;3.90;99.90;;;;;;5093105;28;20028;-68
2022/01/18 08:21:34;;;;;;;42.38;23.55;;;3.90;99.90;;;;;;5093782;28;20083;-67
2022/01/18 08:23:59;;;;;;;40.58;22.58;;;3.90;99.90;;;;;;5093390;28;20103;-68
2022/01/18 08:26:25;;;;;;;45.67;23.15;;;3.90;99.90;;;;;;5092710;28;20039;-68
2022/01/18 08:28:50;;;;;;;49.28;24.38;;;3.90;99.90;;;;;;5092987;28;20024;-67
2022/01/18 08:31:16;;;;;;;43.05;23.25;;;3.90;99.90;;;;;;5093309;28;20028;-67
2022/01/18 08:33:42;;;;;;;42.17;21.75;;;3.90;99.90;;;;;;5093644;28;20476;-68
2022/01/18 08:36:07;;;;;;;39.10;21.75;;;3.90;99.90;;;;;;5093059;28;20058;-68
2022/01/18 08:38:35;;;;;;;41.50;21.40;;;4.00;99.90;;;;;;5093870;28;20032;-68
2022/01/18 08:41:02;;;;;;;39.35;20.40;;;4.00;99.90;;;;;;5093995;28;20026;-67
2022/01/18 08:43:31;;;;;;;41.58;20.98;;;4.10;99.90;;;;;;5089779;28;20032;-67
2022/01/18 08:45:58;;;;;;;41.13;22.27;;;4.20;99.90;;;;;;5092300;28;20032;-67
2022/01/18 08:48:24;;;;;;;41.60;21.55;;;4.20;99.90;;;;;;5092412;28;20274;-67
2022/01/18 08:50:50;;;;;;;39.15;20.67;;;4.20;99.90;;;;;;5093693;28;20081;-68
2022/01/18 08:53:15;;;;;;;43.72;22.23;;;4.20;99.90;;;;;;5092617;28;20025;-69
2022/01/18 08:55:41;;;;;;;37.00;21.50;;;4.20;99.90;;;;;;5093445;28;20161;-68
2022/01/18 08:58:08;;;;;;;41.60;22.90;;;4.30;99.90;;;;;;5093450;28;20070;-68
2022/01/18 09:00:35;;;;;;;37.83;20.58;;;4.30;99.90;;;;;;5093418;28;20438;-67
2022/01/18 09:03:02;;;;;;;42.97;21.90;;;4.40;99.90;;;;;;5093584;28;20036;-67
2022/01/18 09:05:28;;;;;;;39.25;19.88;;;4.50;99.90;;;;;;5092714;28;20063;-69
2022/01/18 09:07:53;;;;;;;33.08;19.60;;;4.60;99.90;;;;;;5093152;28;20456;-67
2022/01/18 09:10:23;;;;;;;42.60;22.17;;;4.60;99.90;;;;;;5092424;28;20024;-67
2022/01/18 09:12:48;;;;;;;39.13;21.17;;;4.70;99.90;;;;;;5093461;28;20020;-67
2022/01/18 09:15:14;;;;;;;34.95;20.73;;;4.90;99.90;;;;;;5092452;28;20461;-67
2022/01/18 09:17:40;;;;;;;40.97;22.02;;;5.00;99.90;;;;;;5092665;28;20044;-67
2022/01/18 09:20:08;;;;;;;39.83;21.95;;;5.20;99.90;;;;;;5086276;28;20031;-67
2022/01/18 09:22:38;;;;;;;40.05;21.92;;;5.30;99.90;;;;;;5092314;28;20465;-67
2022/01/18 09:25:05;;;;;;;;;;;5.30;99.90;;;;;;5093376;28;20028;-67
2022/01/18 09:27:31;;;;;;;43.40;21.65;;;5.40;99.90;;;;;;5091894;28;19911;-67
2022/01/18 09:29:57;;;;;;;43.08;22.45;;;5.50;99.90;;;;;;5092841;28;20457;-67
2022/01/18 09:32:23;;;;;;;40.38;20.45;;;5.60;99.90;;;;;;5092309;28;20537;-67
2022/01/18 09:34:49;;;;;;;33.72;19.65;;;5.60;99.90;;;;;;5093118;28;20024;-67
2022/01/18 09:37:15;;;;;;;38.80;20.15;;;5.60;99.90;;;;;;5091390;28;20035;-67
2022/01/18 09:39:40;;;;;;;33.08;19.75;;;5.60;99.90;;;;;;5088900;28;20349;-67
2022/01/18 09:42:08;;;;;;;36.22;20.52;;;5.70;99.90;;;;;;5092211;28;20024;-69
2022/01/18 09:44:33;;;;;;;33.83;20.23;;;5.70;99.90;;;;;;5091949;28;20024;-67
2022/01/18 09:46:59;;;;;;;34.20;19.70;;;5.70;99.90;;;;;;5092700;28;20119;-68
2022/01/18 09:49:25;;;;;;;38.78;19.52;;;5.60;99.90;;;;;;5098972;28;20433;-67
2022/01/18 09:51:51;;;;;;;34.05;19.23;;;5.50;99.90;;;;;;5092788;28;20031;-67
2022/01/18 09:54:17;;;;;;;28.10;15.23;;;5.50;99.90;;;;;;5091716;28;20035;-67
2022/01/18 09:56:43;;;;;;;29.85;16.17;;;5.30;99.90;;;;;;5092531;28;20126;-67
2022/01/18 09:59:09;;;;;;;36.20;19.20;;;5.10;99.90;;;;;;5092508;28;20499;-67
2022/01/18 10:01:36;;;;;;;34.15;18.13;;;5.00;99.90;;;;;;5091132;28;20097;-67
2022/01/18 10:04:25;;;;;;;31.58;16.42;;;5.00;99.90;;;;;;5074242;28;20043;-67
2022/01/18 10:06:56;;;;;;;35.85;17.10;;;4.90;99.90;;;;;;5092472;28;20028;-68
2022/01/18 10:09:25;;;;;;;33.75;17.75;;;4.80;99.90;;;;;;5086448;28;20052;-67
2022/01/18 10:12:10;;;;;;;35.17;17.00;;;4.70;99.90;;;;;;5079930;28;20380;-67
2022/01/18 10:14:51;;;;;;;32.95;16.40;;;4.60;99.90;;;;;;5091742;28;20089;-67
2022/01/18 10:17:37;;;;;;;35.28;16.98;;;4.60;99.90;;;;;;5092862;28;20036;-67
2022/01/18 10:20:18;;;;;;;35.53;17.55;;;4.90;99.90;;;;;;5092222;28;20089;-67
2022/01/18 10:22:49;;;;;;;34.08;17.38;;;4.90;99.90;;;;;;5082294;28;20051;-67
2022/01/18 10:25:23;;;;;;;38.45;21.08;;;5.00;99.90;;;;;;5093364;28;20046;-68
2022/01/18 10:27:51;;;;;;;36.03;19.08;;;5.20;99.90;;;;;;5093479;28;20035;-68
2022/01/18 10:30:32;;;;;;;36.67;17.50;;;5.20;99.90;;;;;;5088196;28;20078;-68
2022/01/18 10:33:21;;;;;;;37.45;17.98;;;5.20;99.90;;;;;;5072032;28;20033;-66
2022/01/18 10:36:13;;;;;;;31.17;15.85;;;5.00;99.90;;;;;;5065412;28;20747;-67
2022/01/18 10:38:41;;;;;;;36.58;17.17;;;5.00;99.90;;;;;;5079852;28;20119;-67
2022/01/18 10:41:31;;;;;;;33.22;16.88;;;5.10;99.90;;;;;;5093238;28;20028;-68
2022/01/18 10:44:15;;;;;;;32.88;15.15;;;5.20;99.90;;;;;;5091944;28;20035;-67
2022/01/18 10:46:44;;;;;;;29.80;15.48;;;5.30;99.90;;;;;;5091793;28;20529;-67
2022/01/18 10:49:11;;;;;;;33.03;16.80;;;5.40;99.90;;;;;;5091266;28;20048;-67
2022/01/18 10:51:42;;;;;;;28.60;14.35;;;5.60;99.90;;;;;;5091275;28;20029;-67
2022/01/18 10:54:10;;;;;;;29.75;15.52;;;5.80;99.90;;;;;;5092078;28;20035;-68
2022/01/18 10:56:44;;;;;;;27.13;14.77;;;6.00;99.90;;;;;;5090916;28;20039;-67
2022/01/18 10:59:28;;;;;;;30.33;14.85;;;6.30;99.90;;;;;;5091771;28;20028;-67
2022/01/18 11:02:15;;;;;;;29.40;13.35;;;6.30;99.90;;;;;;5091961;28;20022;-68
2022/01/18 11:04:45;;;;;;;27.05;14.43;;;6.40;99.90;;;;;;5083946;28;20036;-67
2022/01/18 11:07:12;;;;;;;24.17;12.35;;;6.40;99.90;;;;;;5079715;28;20386;-68
2022/01/18 11:09:39;;;;;;;19.80;11.45;;;6.30;99.90;;;;;;5070610;28;20570;-66
2022/01/18 11:12:06;;;;;;;25.02;12.90;;;6.20;99.90;;;;;;5062547;28;20082;-66
2022/01/18 11:14:33;;;;;;;17.27;9.70;;;6.20;99.90;;;;;;5084593;28;20111;-67
2022/01/18 11:16:59;;;;;;;19.50;9.55;;;6.10;99.90;;;;;;5058663;28;20055;-67
2022/01/18 11:21:54;;;;;;;25.00;11.32;;;6.00;99.90;;;;;;5078955;28;20028;-66
2022/01/18 11:24:21;;;;;;;21.33;11.52;;;5.90;99.90;;;;;;5078863;28;20461;-67
2022/01/18 11:26:48;;;;;;;18.02;10.25;;;5.90;99.90;;;;;;5072035;28;20028;-67
2022/01/18 11:29:17;;;;;;;20.42;10.80;;;5.70;99.90;;;;;;5114135;28;20027;-67
2022/01/18 11:31:50;;;;;;;18.63;10.25;;;5.70;99.90;;;;;;5076975;28;20081;-67
2022/01/18 11:34:46;;;;;;;19.67;11.00;;;5.60;99.90;;;;;;5074974;28;20033;-67
2022/01/18 11:37:25;;;;;;;24.40;11.07;;;5.40;99.90;;;;;;5075225;28;20363;-67
2022/01/18 11:39:59;;;;;;;27.55;12.55;;;5.40;99.90;;;;;;5074361;28;20079;-67
2022/01/18 11:42:49;;;;;;;22.73;11.32;;;5.40;99.90;;;;;;5065636;28;20027;-67
2022/01/18 11:45:42;;;;;;;20.25;10.55;;;5.60;99.90;;;;;;5114616;28;20536;-67
2022/01/18 11:48:14;;;;;;;20.23;11.13;;;5.90;99.90;;;;;;5111233;28;20484;-67
2022/01/18 11:51:00;;;;;;;20.30;9.60;;;6.30;99.90;;;;;;5085288;28;20035;-67
2022/01/18 11:54:05;;;;;;;17.88;8.90;;;;;;;;;;5114653;28;20024;-66
2022/01/18 11:56:34;;;;;;;12.88;7.10;;;7.00;99.90;;;;;;5110782;28;20180;-66
2022/01/18 11:59:16;;;;;;;17.63;7.18;;;7.30;99.90;;;;;;5115075;28;20019;-67
2022/01/18 12:02:03;;;;;;;12.18;6.43;;;7.40;99.90;;;;;;5101922;28;20028;-68
2022/01/18 12:07:11;;;;;;;12.25;6.68;;;7.30;99.90;;;;;;5094168;28;20126;-68
2022/01/18 12:09:41;;;;;;;22.73;9.60;;;7.10;99.90;;;;;;5093837;28;20024;-67
2022/01/18 12:12:41;;;;;;;18.75;10.32;;;6.90;99.90;;;;;;5093957;28;20606;-68
2022/01/18 12:15:16;;;;;;;20.27;10.18;;;6.70;99.90;;;;;;5094207;28;20052;-67
2022/01/18 12:17:51;;;;;;;18.45;9.77;;;6.50;99.90;;;;;;5093650;28;20065;-68
2022/01/18 12:20:35;;;;;;;20.55;9.25;;;6.40;99.90;;;;;;5094448;28;20032;-68
2022/01/18 12:23:32;;;;;;;17.45;8.85;;;6.30;99.90;;;;;;5100986;28;20027;-68
2022/01/18 12:26:14;;;;;;;19.20;8.55;;;6.30;99.90;;;;;;5089161;28;20028;-67
2022/01/18 12:34:33;;;;;;;13.45;7.88;;;6.10;99.90;;;;;;5073752;28;20029;-68
2022/01/18 12:37:27;;;;;;;14.65;8.05;;;6.00;99.90;;;;;;5073479;28;20087;-73
2022/01/18 12:40:08;;;;;;;16.52;9.02;;;6.10;99.90;;;;;;5094610;28;20387;-73
2022/01/18 12:45:13;;;;;;;16.92;7.63;;;6.30;99.90;;;;;;5113761;28;20031;-75
2022/01/18 12:47:48;;;;;;;21.70;8.25;;;6.30;99.90;;;;;;5113207;28;20102;-66
2022/01/18 12:50:17;;;;;;;15.63;8.27;;;6.30;99.90;;;;;;5095996;28;20052;-66
2022/01/18 12:53:05;;;;;;;14.10;6.93;;;6.20;99.90;;;;;;5092817;28;20036;-66
2022/01/18 12:55:52;;;;;;;12.90;6.95;;;6.10;99.90;;;;;;5093009;28;20051;-66
2022/01/18 12:58:35;;;;;;;13.02;5.55;;;6.00;99.90;;;;;;5093465;28;20036;-66
2022/01/18 13:01:09;;;;;;;10.70;5.35;;;6.00;99.90;;;;;;5092990;28;20020;-66
2022/01/18 13:03:38;;;;;;;12.48;4.80;;;6.00;99.90;;;;;;5109619;28;20038;-65
2022/01/18 13:06:15;;;;;;;9.85;4.78;;;5.90;99.90;;;;;;5103762;28;20055;-67
2022/01/18 13:08:42;;;;;;;7.75;4.22;;;6.00;99.90;;;;;;5089973;28;20436;-69
2022/01/18 13:11:12;;;;;;;14.32;5.45;;;6.00;99.90;;;;;;5094312;28;20079;-69
2022/01/18 13:13:38;;;;;;;9.07;4.80;;;6.00;99.90;;;;;;5093816;28;20054;-70
2022/01/18 13:27:13;;;;;;;10.45;4.47;;;5.60;99.90;;;;;;5089900;28;20049;-70
2022/01/18 13:29:39;;;;;;;16.93;4.33;;;5.50;99.90;;;;;;5091518;28;20024;-70
2022/01/18 13:32:10;;;;;;;11.65;4.13;;;5.50;99.90;;;;;;5106068;28;20030;-68
2022/01/18 13:34:38;;;;;;;8.90;4.20;;;5.50;99.90;;;;;;5112125;28;20019;-70
2022/01/18 13:37:15;;;;;;;10.23;5.07;;;5.50;99.90;;;;;;5112789;28;20374;-69
2022/01/18 13:39:47;;;;;;;8.23;4.00;;;5.50;99.90;;;;;;5099702;28;20024;-69
2022/01/18 13:42:24;;;;;;;6.20;3.97;;;5.60;99.90;;;;;;5092581;28;20086;-70
2022/01/18 13:45:18;;;;;;;9.65;4.22;;;5.70;99.90;;;;;;5084594;28;20537;-69
2022/01/18 13:47:54;;;;;;;9.43;4.35;;;5.80;99.90;;;;;;5091599;28;20035;-69
2022/01/18 13:50:40;;;;;;;6.95;4.53;;;5.80;99.90;;;;;;5092880;28;20135;-69
2022/01/18 13:53:09;;;;;;;10.57;4.28;;;5.90;99.90;;;;;;5092698;28;20465;-70
2022/01/18 13:55:42;;;;;;;10.20;4.25;;;5.90;99.90;;;;;;5091902;28;20028;-70
2022/01/18 13:58:08;;;;;;;8.52;4.57;;;5.90;99.90;;;;;;5092038;28;20028;-70
2022/01/18 14:00:34;;;;;;;10.13;4.13;;;5.90;99.90;;;;;;5091481;28;20031;-70
2022/01/18 14:03:00;;;;;;;8.68;3.78;;;5.80;99.90;;;;;;5091510;28;20031;-70
2022/01/18 14:05:26;;;;;;;8.63;3.35;;;5.80;99.90;;;;;;5083503;28;20394;-71
2022/01/18 14:08:11;;;;;;;13.60;4.35;;;5.80;99.90;;;;;;5085333;28;20024;-71
2022/01/18 14:10:37;;;;;;;8.13;3.58;;;5.80;99.90;;;;;;5082311;28;20051;-70
2022/01/18 14:13:03;;;;;;;9.57;3.58;;;5.80;99.90;;;;;;5092279;28;20067;-71
2022/01/18 14:15:40;;;;;;;8.93;3.28;;;5.70;99.90;;;;;;5083393;28;20024;-71
2022/01/18 14:18:07;;;;;;;10.55;2.85;;;5.80;99.90;;;;;;5071657;28;20119;-70
2022/01/18 14:20:36;;;;;;;6.55;3.35;;;5.80;99.90;;;;;;5070344;28;20041;-70
2022/01/18 14:23:03;;;;;;;7.80;2.70;;;5.80;99.90;;;;;;5085478;28;20036;-69